Scotland, SD (57059)

6:25 AM CDT on July 24, 2014 (GMT -0500)
Scotland, SD (KSDSCOTL2) Elev 1362 ft | 43.15 °N, 97.71 °W | Change Station

Current weather conditions updated 3 minutes ago

Overcast
Overcast
63.1 °F
Feels Like 63.1 °F
N
0.0
Wind Variable Wind from WNW
Gusts 0.0 mph

Today is forecast to be nearly the same temperature as yesterday. Morning showers.

Today
High -- | Low -- °F
--% Chance of Precip.
Yesterday
High -- | Low -- °F
Precip. -- in
6:13 AM 9:00 PM
Waning Crescent, 6% visible
Pressure 30.09 in
Visibility 8.0 miles
Clouds Scattered Clouds 10000 ft
Scattered Clouds 12000 ft
Dew Point 61 °F
Humidity 93%
Rainfall 0.00 in
Snow Depth Not available.
UV 0 out of 12
Pollen 5.70 out of 12
Air Quality Not available.
Flu Activity Not available.
METAR KYKN 241115Z AUTO 06006KT 8SM SCT100 SCT120 16/15 A3009 RMK AO1

More Conditions Fewer Conditions

Pressure 30.09 in
Visibility 8.0 miles
Clouds Scattered Clouds 10000 ft
Scattered Clouds 12000 ft
Dew Point 61 °F
Humidity 93%
Rainfall 0.00 in
Snow Depth Not available.
UV 0 out of 12
Pollen 5.70 out of 12
Air Quality Not available.
Flu Activity Not available.
METAR KYKN 241115Z AUTO 06006KT 8SM SCT100 SCT120 16/15 A3009 RMK AO1

More Conditions Fewer Conditions

10-Day Weather Forecast

Almanac

Astronomy

Jul. 24, 2014 Rise Set
Actual Time 6:13 AM CDT 9:00 PM CDT
Civil Twilight 5:40 AM CDT 9:34 PM CDT
Nautical Twilight 4:58 AM CDT 10:15 PM CDT
Astronomical Twilight 4:09 AM CDT 11:04 PM CDT
Moon 4:22 AM CDT 7:16 PM CDT
Length of Visible Light 15h 54m
Length of Day
14h 47m
Tomorrow will be 1m 57s shorter.
Waning Crescent, 6% of the Moon is Illuminated
Today
Waning Crescent
Jul 26
New
Aug 3
First Quarter
Aug 10
Full
Aug 17
Last Quarter

Today's Extremes

State Highs State Lows

Community

WunderPhotos

Upload Photos

1,736,977 photos uploaded!

Nearby

Snow Depth

Station Depth Elevation
Blind Park 0 in 6890 ft

Earthquake Activity

City Distance Mag. Time & Date
No recent earthquake activity has been reported nearby.
Minimum magnitude displayed is 2.5.

Coastal Water Temperatures

Place Temperature
No Stations Reporting

Nearby Weather Stations

Station Location Temp. Dew Point Humidity Wind Precip. Elev Updated Type
Scotland, SD, Scotland, SD 63.1 °F 61 °F 93% WNW  at  0.0 mph 0.00 in / hr 1362 ft 6:22 AM CDT Normal
APRSWXNET Yankton SD US, Utica, SD 64 °F 64 °F 100% West  at  0 mph 0.00 in / hr 1495 ft 4:55 AM CDT MADIS
Turkey Ridge, Freeman, SD 64.3 °F 60 °F 87% ESE  at  9.0 mph 0.00 in / hr 1644 ft 6:20 AM CDT Normal
FREEMAN, SD 62.6 °F 60 °F 91% East  at  8.0 mph 0.00 in / hr 1440 ft 6:24 AM CDT Normal

Show More Stations Show Fewer Stations